createdAt,value
2018-07-16T00:00:49.945Z,0.217
2018-07-16T00:02:50.047Z,0.154
2018-07-16T00:04:50.436Z,0.148
2018-07-16T00:06:50.660Z,0.148
2018-07-16T00:08:49.877Z,0.160
2018-07-16T00:10:50.031Z,0.137
2018-07-16T00:12:50.230Z,0.131
2018-07-16T00:14:50.398Z,0.114
2018-07-16T00:16:50.721Z,0.160
2018-07-16T00:18:49.862Z,0.137
2018-07-16T00:20:50.123Z,0.103
2018-07-16T00:22:50.346Z,0.205
2018-07-16T00:24:50.474Z,0.177
2018-07-16T00:26:50.748Z,0.177
2018-07-16T00:28:49.918Z,0.143
2018-07-16T00:30:50.022Z,0.154
2018-07-16T00:32:50.171Z,0.103
2018-07-16T00:34:50.732Z,0.131
2018-07-16T00:36:50.095Z,0.188
2018-07-16T00:38:50.242Z,0.143
2018-07-16T00:40:50.417Z,0.154
2018-07-16T00:42:50.560Z,0.217
2018-07-16T00:44:49.835Z,0.103
2018-07-16T00:46:50.117Z,0.160
2018-07-16T00:48:50.236Z,0.160
2018-07-16T00:50:50.939Z,0.160
2018-07-16T00:52:50.130Z,0.177
2018-07-16T00:54:50.226Z,0.143
2018-07-16T00:56:50.463Z,0.148
2018-07-16T00:58:50.699Z,0.125
2018-07-16T01:00:49.857Z,0.125
2018-07-16T01:02:49.999Z,0.154
2018-07-16T01:04:50.351Z,0.165
2018-07-16T01:06:50.557Z,0.182
2018-07-16T01:08:50.760Z,0.154
2018-07-16T01:10:49.873Z,0.171
2018-07-16T01:12:50.121Z,0.137
2018-07-16T01:14:50.216Z,0.120
2018-07-16T01:16:50.551Z,0.171
2018-07-16T01:18:50.707Z,0.177
2018-07-16T01:20:49.841Z,0.103
2018-07-16T01:22:49.964Z,0.182
2018-07-16T01:24:50.112Z,0.114
2018-07-16T01:26:50.506Z,0.131
2018-07-16T01:28:50.668Z,0.160
2018-07-16T01:30:49.799Z,0.165
2018-07-16T01:32:49.899Z,0.120
2018-07-16T01:34:50.304Z,0.177
2018-07-16T01:36:50.574Z,0.165
2018-07-16T01:38:50.743Z,0.137
2018-07-16T01:40:49.963Z,0.154
2018-07-16T01:42:50.298Z,0.148
2018-07-16T01:44:50.382Z,0.205
2018-07-16T01:46:50.748Z,0.120
2018-07-16T01:48:49.939Z,0.154
2018-07-16T01:50:50.085Z,0.137
2018-07-16T01:52:50.255Z,0.171
2018-07-16T01:54:50.450Z,0.143
2018-07-16T01:56:50.706Z,0.251
2018-07-16T01:58:49.888Z,0.120
2018-07-16T02:00:50.095Z,0.125
2018-07-16T02:02:50.318Z,0.137
2018-07-16T02:04:49.869Z,0.074
2018-07-16T02:06:50.246Z,0.171
2018-07-16T02:08:50.617Z,0.148
2018-07-16T02:10:49.814Z,0.125
2018-07-16T02:12:50.068Z,0.160
2018-07-16T02:14:50.182Z,0.171
2018-07-16T02:16:50.458Z,0.148
2018-07-16T02:18:50.640Z,0.182
2018-07-16T02:20:50.084Z,0.148
2018-07-16T02:22:50.232Z,0.143
2018-07-16T02:24:50.397Z,0.125
2018-07-16T02:26:50.737Z,0.154
2018-07-16T02:28:49.909Z,0.165
2018-07-16T02:30:50.004Z,0.148
2018-07-16T02:32:50.185Z,0.160
2018-07-16T02:34:50.597Z,0.137
2018-07-16T02:36:49.982Z,0.188
2018-07-16T02:38:50.179Z,0.143
2018-07-16T02:40:50.371Z,0.194
2018-07-16T02:42:50.600Z,0.143
2018-07-16T02:44:49.853Z,0.148
2018-07-16T02:46:50.154Z,0.131
2018-07-16T02:48:50.488Z,0.114
2018-07-16T02:50:50.660Z,0.154
2018-07-16T02:52:49.862Z,0.154
2018-07-16T02:54:50.047Z,0.205
2018-07-16T02:56:50.403Z,0.182
2018-07-16T02:58:50.701Z,0.143
2018-07-16T03:00:49.930Z,0.120
2018-07-16T03:02:50.167Z,0.108
2018-07-16T03:04:50.533Z,0.114
2018-07-16T03:06:49.901Z,0.160
2018-07-16T03:08:50.105Z,0.177
2018-07-16T03:10:50.224Z,0.108
2018-07-16T03:12:50.343Z,0.131
2018-07-16T03:14:50.464Z,0.120
2018-07-16T03:16:49.884Z,0.160
2018-07-16T03:18:50.061Z,0.114
2018-07-16T03:20:50.276Z,0.125
2018-07-16T03:22:50.491Z,0.114
2018-07-16T03:24:50.718Z,0.154
2018-07-16T03:26:50.137Z,0.131
2018-07-16T03:28:50.258Z,0.194
2018-07-16T03:30:50.452Z,0.188
2018-07-16T03:32:50.667Z,0.200
2018-07-16T03:34:50.052Z,0.154
2018-07-16T03:36:50.430Z,0.120
2018-07-16T03:38:50.515Z,0.143
2018-07-16T03:40:50.653Z,0.103
2018-07-16T03:42:49.941Z,0.228
2018-07-16T03:44:50.058Z,0.114
2018-07-16T03:46:50.503Z,0.143
2018-07-16T03:48:50.732Z,0.182
2018-07-16T03:50:49.869Z,0.165
2018-07-16T03:52:50.049Z,0.131
2018-07-16T03:54:50.224Z,0.097
2018-07-16T03:56:50.599Z,0.114
2018-07-16T03:58:50.694Z,0.194
2018-07-16T04:00:49.925Z,0.143
2018-07-16T04:02:50.069Z,0.137
2018-07-16T04:04:50.414Z,0.148
2018-07-16T04:06:49.792Z,0.188
2018-07-16T04:08:49.954Z,0.131
2018-07-16T04:10:50.061Z,0.108
2018-07-16T04:12:50.539Z,0.120
2018-07-16T04:14:50.599Z,0.177
2018-07-16T04:16:49.995Z,0.160
2018-07-16T04:18:50.203Z,0.125
2018-07-16T04:20:50.326Z,0.177
2018-07-16T04:22:50.525Z,0.165
2018-07-16T04:24:50.675Z,0.103
2018-07-16T04:26:50.045Z,0.200
2018-07-16T04:28:50.250Z,0.177
2018-07-16T04:30:50.775Z,0.097
2018-07-16T04:32:49.984Z,0.194
2018-07-16T04:34:50.444Z,0.143
2018-07-16T04:36:49.865Z,0.154
2018-07-16T04:38:50.099Z,0.165
2018-07-16T04:40:50.271Z,0.160
2018-07-16T04:42:50.418Z,0.171
2018-07-16T04:44:50.587Z,0.103
2018-07-16T04:46:49.973Z,0.125
2018-07-16T04:48:50.072Z,0.165
2018-07-16T04:50:50.194Z,0.114
2018-07-16T04:52:50.421Z,0.148
2018-07-16T04:54:50.545Z,0.182
2018-07-16T04:56:49.880Z,0.137
2018-07-16T04:58:50.056Z,0.148
2018-07-16T05:00:50.220Z,0.165
2018-07-16T05:02:50.403Z,0.154
2018-07-16T05:04:49.928Z,0.143
2018-07-16T05:06:50.179Z,0.137
2018-07-16T05:08:50.347Z,0.131
2018-07-16T05:10:50.575Z,0.177
2018-07-16T05:12:49.776Z,0.148
2018-07-16T05:14:49.944Z,0.182
2018-07-16T05:16:50.263Z,0.182
2018-07-16T05:18:50.403Z,0.154
2018-07-16T05:20:50.516Z,0.108
2018-07-16T05:22:49.854Z,0.108
2018-07-16T05:24:49.979Z,0.108
2018-07-16T05:26:50.267Z,0.137
2018-07-16T05:28:50.469Z,0.137
2018-07-16T05:30:50.759Z,0.143
2018-07-16T05:32:50.385Z,0.114
2018-07-16T05:34:50.078Z,0.154
2018-07-16T05:36:49.972Z,0.148
2018-07-16T05:38:50.204Z,0.125
2018-07-16T05:40:50.350Z,0.160
2018-07-16T05:42:50.472Z,0.160
2018-07-16T05:44:50.592Z,0.211
2018-07-16T05:46:49.976Z,0.137
2018-07-16T05:48:50.065Z,0.143
2018-07-16T05:50:50.189Z,0.154
2018-07-16T05:52:50.384Z,0.120
2018-07-16T05:54:50.487Z,0.165
2018-07-16T05:56:49.813Z,0.137
2018-07-16T05:58:49.992Z,0.114
2018-07-16T06:00:50.247Z,0.160
2018-07-16T06:02:50.374Z,0.131
2018-07-16T06:04:49.774Z,0.165
2018-07-16T06:06:50.213Z,0.108
2018-07-16T06:08:50.942Z,0.108
2018-07-16T06:10:50.496Z,0.217
2018-07-16T06:12:50.610Z,0.200
2018-07-16T06:14:49.861Z,0.194
2018-07-16T06:16:50.613Z,0.165
2018-07-16T06:18:50.045Z,0.120
2018-07-16T06:20:50.269Z,0.165
2018-07-16T06:22:50.484Z,0.137
2018-07-16T06:24:50.633Z,0.205
2018-07-16T06:26:50.014Z,0.171
2018-07-16T06:28:50.308Z,0.177
2018-07-16T06:30:50.447Z,0.108
2018-07-16T06:32:49.847Z,0.068
2018-07-16T06:34:50.260Z,0.182
2018-07-16T06:36:50.543Z,0.080
2018-07-16T06:38:50.771Z,0.160
2018-07-16T06:40:51.489Z,0.086
2018-07-16T06:42:50.614Z,0.125
2018-07-16T06:44:49.790Z,0.182
2018-07-16T06:46:50.124Z,0.165
2018-07-16T06:48:50.366Z,0.188
2018-07-16T06:50:50.503Z,0.103
2018-07-16T06:52:50.613Z,0.165
2018-07-16T06:54:49.789Z,0.171
2018-07-16T06:56:50.054Z,0.171
2018-07-16T06:58:50.180Z,0.097
2018-07-16T07:00:50.430Z,0.131
2018-07-16T07:02:50.673Z,0.182
2018-07-16T07:04:50.250Z,0.177
2018-07-16T07:06:50.732Z,0.154
2018-07-16T07:08:49.817Z,0.217
2018-07-16T07:10:50.009Z,0.131
2018-07-16T07:12:50.181Z,0.154
2018-07-16T07:14:50.496Z,0.200
2018-07-16T07:16:49.877Z,0.154
2018-07-16T07:18:50.086Z,0.171
2018-07-16T07:20:50.304Z,0.080
2018-07-16T07:22:50.527Z,0.148
2018-07-16T07:24:50.763Z,0.148
2018-07-16T07:26:50.121Z,0.177
2018-07-16T07:28:50.305Z,0.205
2018-07-16T07:30:50.569Z,0.137
2018-07-16T07:32:50.701Z,0.131
2018-07-16T07:34:50.192Z,0.125
2018-07-16T07:36:50.670Z,0.143
2018-07-16T07:38:49.813Z,0.148
2018-07-16T07:40:49.908Z,0.182
2018-07-16T07:42:49.996Z,0.200
2018-07-16T07:44:50.153Z,0.143
2018-07-16T07:46:50.472Z,0.131
2018-07-16T07:48:50.655Z,0.165
2018-07-16T07:50:49.904Z,0.120
2018-07-16T07:52:50.162Z,0.171
2018-07-16T07:54:52.281Z,0.120
2018-07-16T07:56:50.440Z,0.228
2018-07-16T07:58:50.546Z,0.188
2018-07-16T08:00:50.688Z,0.125
2018-07-16T08:02:49.979Z,0.228
2018-07-16T08:04:50.414Z,0.131
2018-07-16T08:06:49.860Z,0.131
2018-07-16T08:08:50.052Z,0.160
2018-07-16T08:10:50.264Z,0.125
2018-07-16T08:12:51.387Z,0.200
2018-07-16T08:14:50.696Z,0.165
2018-07-16T08:16:50.082Z,0.120
2018-07-16T08:18:50.327Z,0.137
2018-07-16T08:20:52.719Z,0.160
2018-07-16T08:22:49.822Z,0.154
2018-07-16T08:24:50.161Z,0.114
2018-07-16T08:26:50.489Z,0.125
2018-07-16T08:28:52.864Z,0.137
2018-07-16T08:30:50.623Z,0.131
2018-07-16T08:32:49.989Z,0.188
2018-07-16T08:34:50.512Z,0.143
2018-07-16T08:36:51.780Z,0.154
2018-07-16T08:38:50.431Z,0.177
2018-07-16T08:40:50.623Z,0.188
2018-07-16T08:42:49.844Z,0.148
2018-07-16T08:44:50.126Z,0.194
2018-07-16T08:46:50.428Z,0.171
2018-07-16T08:48:50.564Z,0.125
2018-07-16T08:50:49.882Z,0.143
2018-07-16T08:52:50.726Z,0.171
2018-07-16T08:54:50.282Z,0.182
2018-07-16T08:56:50.696Z,0.205
2018-07-16T08:58:49.827Z,0.086
2018-07-16T09:00:49.935Z,0.143
2018-07-16T09:02:50.109Z,0.148
2018-07-16T09:04:50.457Z,0.125
2018-07-16T09:06:50.747Z,0.194
2018-07-16T09:08:49.949Z,0.137
2018-07-16T09:10:50.235Z,0.154
2018-07-16T09:12:50.405Z,0.125
2018-07-16T09:14:50.574Z,0.108
2018-07-16T09:16:49.976Z,0.125
2018-07-16T09:18:50.298Z,0.194
2018-07-16T09:20:49.923Z,0.154
2018-07-16T09:22:50.369Z,0.097
2018-07-16T09:24:50.450Z,0.148
2018-07-16T09:26:49.798Z,0.160
2018-07-16T09:28:49.988Z,0.188
2018-07-16T09:30:50.313Z,0.160
2018-07-16T09:32:51.278Z,0.165
2018-07-16T09:34:49.852Z,0.165
2018-07-16T09:36:50.119Z,0.080
2018-07-16T09:38:50.563Z,0.194
2018-07-16T09:40:50.762Z,0.165
2018-07-16T09:42:49.860Z,0.148
2018-07-16T09:44:50.077Z,0.160
2018-07-16T09:46:50.334Z,0.114
2018-07-16T09:48:50.424Z,0.154
2018-07-16T09:50:50.679Z,0.143
2018-07-16T09:52:49.804Z,0.137
2018-07-16T09:54:50.012Z,0.171
2018-07-16T09:56:50.330Z,0.194
2018-07-16T09:58:50.480Z,0.177
2018-07-16T10:00:50.674Z,0.131
2018-07-16T10:02:49.866Z,0.125
2018-07-16T10:04:50.208Z,0.137
2018-07-16T10:06:50.505Z,0.131
2018-07-16T10:08:50.726Z,0.160
2018-07-16T10:10:49.877Z,0.182
2018-07-16T10:12:50.049Z,0.171
2018-07-16T10:14:50.145Z,0.148
2018-07-16T10:16:50.652Z,0.148
2018-07-16T10:18:49.850Z,0.171
2018-07-16T10:20:50.070Z,0.091
2018-07-16T10:22:50.230Z,0.143
2018-07-16T10:24:50.391Z,0.114
2018-07-16T10:26:50.648Z,0.120
2018-07-16T10:28:49.798Z,0.120
2018-07-16T10:30:50.023Z,0.103
2018-07-16T10:32:50.201Z,0.114
2018-07-16T10:34:50.617Z,0.171
2018-07-16T10:36:50.014Z,0.148
2018-07-16T10:38:50.210Z,0.137
2018-07-16T10:40:50.322Z,0.148
2018-07-16T10:42:50.497Z,0.103
2018-07-16T10:44:50.620Z,0.205
2018-07-16T10:46:49.870Z,0.200
2018-07-16T10:48:50.024Z,0.137
2018-07-16T10:50:50.152Z,0.137
2018-07-16T10:52:50.342Z,0.148
2018-07-16T10:54:50.496Z,0.131
2018-07-16T10:56:49.826Z,0.103
2018-07-16T10:58:49.974Z,0.143
2018-07-16T11:00:50.167Z,0.148
2018-07-16T11:02:50.385Z,0.137
2018-07-16T11:04:49.936Z,0.148
2018-07-16T11:06:50.211Z,0.143
2018-07-16T11:08:50.483Z,0.154
2018-07-16T11:10:50.561Z,0.097
2018-07-16T11:12:49.785Z,0.097
2018-07-16T11:14:50.231Z,0.194
2018-07-16T11:16:50.540Z,0.148
2018-07-16T11:18:50.765Z,0.165
2018-07-16T11:20:50.141Z,0.205
2018-07-16T11:22:50.367Z,0.137
2018-07-16T11:24:50.506Z,0.143
2018-07-16T11:26:49.877Z,0.143
2018-07-16T11:28:50.027Z,0.182
2018-07-16T11:30:50.226Z,0.148
2018-07-16T11:32:50.408Z,0.148
2018-07-16T11:34:49.900Z,0.160
2018-07-16T11:36:50.085Z,0.177
2018-07-16T11:38:50.261Z,0.137
2018-07-16T11:40:50.337Z,0.120
2018-07-16T11:42:50.586Z,0.165
2018-07-16T11:44:50.801Z,0.171
2018-07-16T11:46:50.079Z,0.125
2018-07-16T11:48:50.212Z,0.177
2018-07-16T11:50:50.319Z,0.160
2018-07-16T11:52:50.462Z,0.137
2018-07-16T11:54:50.580Z,0.143
2018-07-16T11:56:49.882Z,0.137
2018-07-16T11:58:50.462Z,0.165
2018-07-16T12:00:49.789Z,0.120
2018-07-16T12:02:49.957Z,0.143
2018-07-16T12:04:50.411Z,0.137
2018-07-16T12:06:49.803Z,0.114
2018-07-16T12:08:49.914Z,0.160
2018-07-16T12:10:50.020Z,0.160
2018-07-16T12:12:50.137Z,0.143
2018-07-16T12:14:50.250Z,0.154
2018-07-16T12:16:50.520Z,0.200
2018-07-16T12:18:50.631Z,0.131
2018-07-16T12:20:49.936Z,0.137
2018-07-16T12:22:50.231Z,0.120
2018-07-16T12:24:50.385Z,0.143
2018-07-16T12:26:50.691Z,0.137
2018-07-16T12:28:49.871Z,0.148
2018-07-16T12:30:50.008Z,0.125
2018-07-16T12:32:50.578Z,0.160
2018-07-16T12:34:50.315Z,0.108
2018-07-16T12:36:50.638Z,0.114
2018-07-16T12:38:50.765Z,0.091
2018-07-16T12:40:49.848Z,0.165
2018-07-16T12:42:50.076Z,0.165
2018-07-16T12:44:50.240Z,0.160
2018-07-16T12:46:50.686Z,0.177
2018-07-16T12:48:49.967Z,0.211
2018-07-16T12:50:50.147Z,0.091
2018-07-16T12:52:50.280Z,0.154
2018-07-16T12:54:50.315Z,0.108
2018-07-16T12:56:50.608Z,0.125
2018-07-16T12:58:49.789Z,0.103
2018-07-16T13:00:50.033Z,0.143
2018-07-16T13:02:50.154Z,0.137
2018-07-16T13:04:50.670Z,0.114
2018-07-16T13:06:50.178Z,0.154
2018-07-16T13:08:50.375Z,0.165
2018-07-16T13:10:50.567Z,0.137
2018-07-16T13:12:50.683Z,0.046
2018-07-16T13:14:49.900Z,0.000
2018-07-16T13:16:50.198Z,0.000
2018-07-16T13:18:50.381Z,0.000
2018-07-16T13:20:50.537Z,0.000
2018-07-16T13:22:50.761Z,0.000
2018-07-16T13:24:49.917Z,0.000
2018-07-16T13:26:50.287Z,0.000
2018-07-16T13:28:50.555Z,0.000
2018-07-16T13:30:50.636Z,0.000
2018-07-16T13:32:49.891Z,0.000
2018-07-16T13:34:50.312Z,0.000
2018-07-16T13:36:50.584Z,0.000
2018-07-16T13:38:49.836Z,0.000
2018-07-16T13:40:50.079Z,0.000
2018-07-16T13:42:50.210Z,0.000
2018-07-16T13:44:50.337Z,0.000
2018-07-16T13:46:51.358Z,0.000
2018-07-16T13:48:49.875Z,0.000
2018-07-16T13:50:50.062Z,0.000
2018-07-16T13:52:50.844Z,0.000
2018-07-16T13:54:50.337Z,0.000
2018-07-16T13:56:50.973Z,0.000
2018-07-16T13:58:50.179Z,0.000
2018-07-16T14:00:50.373Z,0.000
2018-07-16T14:02:50.539Z,0.000
2018-07-16T14:04:49.911Z,0.000
2018-07-16T14:06:50.158Z,0.000
2018-07-16T14:08:50.462Z,0.000
2018-07-16T14:10:50.592Z,0.000
2018-07-16T14:12:50.712Z,0.000
2018-07-16T14:14:49.987Z,0.000
2018-07-16T14:16:50.304Z,0.000
2018-07-16T14:18:50.503Z,0.000
2018-07-16T14:20:49.792Z,0.000
2018-07-16T14:22:49.913Z,0.000
2018-07-16T14:24:50.068Z,0.000
2018-07-16T14:26:50.375Z,0.000
2018-07-16T14:28:50.453Z,0.000
2018-07-16T14:30:49.794Z,0.000
2018-07-16T14:32:49.923Z,0.000
2018-07-16T14:34:50.263Z,0.000
2018-07-16T14:36:50.607Z,0.000
2018-07-16T14:38:50.792Z,0.000
2018-07-16T14:40:49.922Z,0.000
2018-07-16T14:42:50.121Z,0.000
2018-07-16T14:44:50.764Z,0.000
2018-07-16T14:46:50.287Z,0.000
2018-07-16T14:48:50.557Z,0.000
2018-07-16T14:50:50.642Z,0.000
2018-07-16T14:52:49.834Z,0.000
2018-07-16T14:54:50.039Z,0.000
2018-07-16T14:56:50.293Z,0.000
2018-07-16T14:58:50.380Z,0.000
2018-07-16T15:00:50.486Z,0.000
2018-07-16T15:02:50.702Z,0.000
2018-07-16T15:04:50.296Z,0.000
2018-07-16T15:06:50.518Z,0.000
2018-07-16T15:08:50.685Z,0.000
2018-07-16T15:10:49.797Z,0.000
2018-07-16T15:12:49.993Z,0.000
2018-07-16T15:14:50.104Z,0.000
2018-07-16T15:16:50.425Z,0.000
2018-07-16T15:18:50.622Z,0.000
2018-07-16T15:20:52.629Z,0.000
2018-07-16T15:22:50.637Z,0.000
2018-07-16T15:24:49.873Z,0.000
2018-07-16T15:26:50.214Z,0.000
2018-07-16T15:28:50.306Z,0.000
2018-07-16T15:30:50.404Z,0.000
2018-07-16T15:32:50.469Z,0.000
2018-07-16T15:34:49.878Z,0.000
2018-07-16T15:36:50.195Z,0.000
2018-07-16T15:38:50.323Z,0.000
2018-07-16T15:40:50.438Z,0.000
2018-07-16T15:42:50.618Z,0.000
2018-07-16T15:44:49.880Z,0.000
2018-07-16T15:46:50.061Z,0.000
2018-07-16T15:48:50.271Z,0.000
2018-07-16T15:50:50.412Z,0.000
2018-07-16T15:52:50.547Z,0.000
2018-07-16T15:54:50.626Z,0.000
2018-07-16T15:56:49.908Z,0.000
2018-07-16T15:58:50.078Z,0.000
2018-07-16T16:00:50.213Z,0.000
2018-07-16T16:02:50.850Z,0.000
2018-07-16T16:04:50.446Z,0.000
2018-07-16T16:06:49.783Z,0.000
2018-07-16T16:08:50.091Z,0.000
2018-07-16T16:10:50.299Z,0.000
2018-07-16T16:12:50.382Z,0.000
2018-07-16T16:14:50.512Z,0.000
2018-07-16T16:16:49.826Z,0.000
2018-07-16T16:18:49.982Z,0.000
2018-07-16T16:20:50.141Z,0.000
2018-07-16T16:22:50.402Z,0.000
2018-07-16T16:24:50.482Z,0.000
2018-07-16T16:26:50.727Z,0.000
2018-07-16T16:28:49.875Z,0.000
2018-07-16T16:30:50.196Z,0.000
2018-07-16T16:32:50.441Z,0.000
2018-07-16T16:34:49.993Z,0.000
2018-07-16T16:36:50.258Z,0.000
2018-07-16T16:38:50.390Z,0.000
2018-07-16T16:40:50.490Z,0.000
2018-07-16T16:42:50.699Z,0.000
2018-07-16T16:44:49.886Z,0.000
2018-07-16T16:46:50.108Z,0.000
2018-07-16T16:48:50.225Z,0.000
2018-07-16T16:50:50.383Z,0.000
2018-07-16T16:52:50.947Z,0.000
2018-07-16T16:54:50.413Z,0.000
2018-07-16T16:56:50.645Z,0.000
2018-07-16T16:58:49.865Z,0.000
2018-07-16T17:00:50.039Z,0.000
2018-07-16T17:02:50.139Z,0.000
2018-07-16T17:04:50.671Z,0.000
2018-07-16T17:06:50.013Z,0.000
2018-07-16T17:10:50.051Z,0.103
2018-07-16T17:12:50.134Z,0.091
2018-07-16T17:14:50.299Z,0.137
2018-07-16T17:16:50.467Z,0.148
2018-07-16T17:18:50.611Z,0.154
2018-07-16T17:20:49.858Z,0.154
2018-07-16T17:22:50.073Z,0.148
2018-07-16T17:24:50.208Z,0.165
2018-07-16T17:26:50.641Z,0.194
2018-07-16T17:28:49.850Z,0.131
2018-07-16T17:30:50.052Z,0.114
2018-07-16T17:32:50.185Z,0.114
2018-07-16T17:34:51.191Z,0.160
2018-07-16T17:36:49.984Z,0.131
2018-07-16T17:38:50.074Z,0.103
2018-07-16T17:40:50.268Z,0.171
2018-07-16T17:42:50.602Z,0.188
2018-07-16T17:44:49.778Z,0.103
2018-07-16T17:46:50.054Z,0.137
2018-07-16T17:48:50.222Z,0.120
2018-07-16T17:50:50.359Z,0.086
2018-07-16T17:52:50.433Z,0.171
2018-07-16T17:54:50.647Z,0.114
2018-07-16T17:56:49.956Z,0.125
2018-07-16T17:58:50.977Z,0.165
2018-07-16T18:00:50.163Z,0.114
2018-07-16T18:02:50.304Z,0.097
2018-07-16T18:04:49.779Z,0.154
2018-07-16T18:06:50.100Z,0.171
2018-07-16T18:08:50.227Z,0.148
2018-07-16T18:10:50.379Z,0.131
2018-07-16T18:12:50.543Z,0.154
2018-07-16T18:14:50.685Z,0.143
2018-07-16T18:16:50.069Z,0.108
2018-07-16T18:18:50.214Z,0.137
2018-07-16T18:20:50.409Z,0.108
2018-07-16T18:22:50.686Z,0.114
2018-07-16T18:24:50.398Z,0.143
2018-07-16T18:26:50.713Z,0.154
2018-07-16T18:28:49.893Z,0.177
2018-07-16T18:30:50.010Z,0.143
2018-07-16T18:32:50.132Z,0.188
2018-07-16T18:34:50.578Z,0.131
2018-07-16T18:36:49.891Z,0.120
2018-07-16T18:38:50.051Z,0.114
2018-07-16T18:40:50.236Z,0.137
2018-07-16T18:42:50.350Z,0.137
2018-07-16T18:44:50.527Z,0.137
2018-07-16T18:46:49.885Z,0.131
2018-07-16T18:48:49.976Z,0.217
2018-07-16T18:50:50.096Z,0.125
2018-07-16T18:52:50.201Z,0.097
2018-07-16T18:54:50.337Z,0.108
2018-07-16T18:56:50.715Z,0.143
2018-07-16T18:58:49.877Z,0.143
2018-07-16T19:00:50.045Z,0.188
2018-07-16T19:02:50.173Z,0.148
2018-07-16T19:04:50.556Z,0.148
2018-07-16T19:06:49.855Z,0.120
2018-07-16T19:08:50.006Z,0.108
2018-07-16T19:10:50.127Z,0.137
2018-07-16T19:12:50.318Z,0.103
2018-07-16T19:14:50.449Z,0.165
2018-07-16T19:16:49.800Z,0.188
2018-07-16T19:18:50.042Z,0.154
2018-07-16T19:20:50.363Z,0.091
2018-07-16T19:22:50.533Z,0.131
2018-07-16T19:24:50.770Z,0.148
2018-07-16T19:26:50.069Z,0.137
2018-07-16T19:28:50.261Z,0.154
2018-07-16T19:30:50.369Z,0.188
2018-07-16T19:32:50.545Z,0.120
2018-07-16T19:34:49.950Z,0.114
2018-07-16T19:36:50.363Z,0.091
2018-07-16T19:38:51.233Z,0.120
2018-07-16T19:40:49.773Z,0.154
2018-07-16T19:42:49.905Z,0.234
2018-07-16T19:44:50.141Z,0.131
2018-07-16T19:46:50.412Z,0.154
2018-07-16T19:48:50.567Z,0.131
2018-07-16T19:50:50.115Z,0.177
2018-07-16T19:52:50.531Z,0.131
2018-07-16T19:54:50.637Z,0.177
2018-07-16T19:56:50.232Z,0.182
2018-07-16T19:58:50.513Z,0.160
2018-07-16T20:00:50.631Z,0.091
2018-07-16T20:02:50.263Z,0.120
2018-07-16T20:04:49.916Z,0.160
2018-07-16T20:06:50.178Z,0.103
2018-07-16T20:08:50.334Z,0.171
2018-07-16T20:10:50.639Z,0.148
2018-07-16T20:12:49.797Z,0.148
2018-07-16T20:14:49.945Z,0.137
2018-07-16T20:16:50.399Z,0.131
2018-07-16T20:18:50.515Z,0.137
2018-07-16T20:20:51.137Z,0.171
2018-07-16T20:22:50.445Z,0.154
2018-07-16T20:24:50.548Z,0.177
2018-07-16T20:26:50.260Z,0.137
2018-07-16T20:28:50.486Z,0.137
2018-07-16T20:30:50.693Z,0.154
2018-07-16T20:32:49.807Z,0.171
2018-07-16T20:34:50.181Z,0.171
2018-07-16T20:36:50.525Z,0.171
2018-07-16T20:38:50.647Z,0.091
2018-07-16T20:40:50.752Z,0.143
2018-07-16T20:42:50.037Z,0.160
2018-07-16T20:44:50.244Z,0.131
2018-07-16T20:46:50.705Z,0.143
2018-07-16T20:48:49.905Z,0.182
2018-07-16T20:50:50.071Z,0.143
2018-07-16T20:52:50.225Z,0.143
2018-07-16T20:54:50.373Z,0.131
2018-07-16T20:56:50.556Z,0.131
2018-07-16T21:00:49.801Z,0.165
2018-07-16T21:02:49.951Z,0.182
2018-07-16T21:04:50.379Z,0.131
2018-07-16T21:06:50.644Z,0.108
2018-07-16T21:08:50.795Z,0.143
2018-07-16T21:10:49.909Z,0.154
2018-07-16T21:12:50.021Z,0.103
2018-07-16T21:14:50.188Z,0.120
2018-07-16T21:16:50.515Z,0.171
2018-07-16T21:18:50.678Z,0.160
2018-07-16T21:20:49.905Z,0.137
2018-07-16T21:22:50.091Z,0.160
2018-07-16T21:24:50.212Z,0.097
2018-07-16T21:26:50.430Z,0.143
2018-07-16T21:28:50.491Z,0.205
2018-07-16T21:30:50.688Z,0.120
2018-07-16T21:32:49.850Z,0.131
2018-07-16T21:34:50.411Z,0.125
2018-07-16T21:36:49.761Z,0.171
2018-07-16T21:38:50.057Z,0.131
2018-07-16T21:40:50.426Z,0.200
2018-07-16T21:42:49.905Z,0.200
2018-07-16T21:44:50.055Z,0.137
2018-07-16T21:46:50.424Z,0.114
2018-07-16T21:48:50.493Z,0.182
2018-07-16T21:50:50.699Z,0.137
2018-07-16T21:52:49.862Z,0.137
2018-07-16T21:54:50.108Z,0.103
2018-07-16T21:56:50.413Z,0.148
2018-07-16T21:58:50.595Z,0.171
2018-07-16T22:00:51.388Z,0.137
2018-07-16T22:02:49.846Z,0.143
2018-07-16T22:04:50.175Z,0.143
2018-07-16T22:06:50.497Z,0.137
2018-07-16T22:08:50.624Z,0.160
2018-07-16T22:10:50.783Z,0.188
2018-07-16T22:12:50.034Z,0.148
2018-07-16T22:14:50.370Z,0.143
2018-07-16T22:16:50.545Z,0.148
2018-07-16T22:18:50.768Z,0.137
2018-07-16T22:20:49.964Z,0.182
2018-07-16T22:22:50.256Z,0.091
2018-07-16T22:24:50.441Z,0.188
2018-07-16T22:26:49.815Z,0.194
2018-07-16T22:28:49.947Z,0.137
2018-07-16T22:30:50.111Z,0.108
2018-07-16T22:32:50.241Z,0.154
2018-07-16T22:34:50.611Z,0.160
2018-07-16T22:36:49.914Z,0.171
2018-07-16T22:38:50.053Z,0.200
2018-07-16T22:40:50.245Z,0.154
2018-07-16T22:42:50.389Z,0.103
2018-07-16T22:44:50.497Z,0.143
2018-07-16T22:46:49.850Z,0.125
2018-07-16T22:48:49.986Z,0.125
2018-07-16T22:50:50.060Z,0.160
2018-07-16T22:52:50.237Z,0.086
2018-07-16T22:54:50.356Z,0.143
2018-07-16T22:56:50.788Z,0.148
2018-07-16T22:58:49.888Z,0.137
2018-07-16T23:00:50.053Z,0.160
2018-07-16T23:02:50.176Z,0.148
2018-07-16T23:04:50.553Z,0.131
2018-07-16T23:06:49.788Z,0.114
2018-07-16T23:08:49.957Z,0.154
2018-07-16T23:10:50.049Z,0.154
2018-07-16T23:12:50.172Z,0.194
2018-07-16T23:14:50.349Z,0.154
2018-07-16T23:16:49.782Z,0.194
2018-07-16T23:18:50.052Z,0.160
2018-07-16T23:20:50.228Z,0.177
2018-07-16T23:22:50.347Z,0.177
2018-07-16T23:24:50.601Z,0.125
2018-07-16T23:26:49.966Z,0.137
2018-07-16T23:28:50.805Z,0.125
2018-07-16T23:30:50.284Z,0.177
2018-07-16T23:32:50.360Z,0.148
2018-07-16T23:34:49.862Z,0.160
2018-07-16T23:36:50.091Z,0.154
2018-07-16T23:38:50.280Z,0.160
2018-07-16T23:40:50.483Z,0.125
2018-07-16T23:42:50.612Z,0.171
2018-07-16T23:44:49.872Z,0.131
2018-07-16T23:46:50.205Z,0.200
2018-07-16T23:48:50.283Z,0.097
2018-07-16T23:50:50.439Z,0.188
2018-07-16T23:52:50.527Z,0.200
2018-07-16T23:54:50.693Z,0.165
2018-07-16T23:56:49.966Z,0.131
2018-07-16T23:58:50.076Z,0.154
